sensor_id;sensor_type;location;lat;lon;timestamp;P1;durP1;ratioP1;P2;durP2;ratioP2
77602;SDS011;66771;52.434;17.056;2023-04-12T00:00:06;13.80;;;5.00;;
77602;SDS011;66771;52.434;17.056;2023-04-12T00:02:57;7.60;;;5.50;;
77602;SDS011;66771;52.434;17.056;2023-04-12T00:05:24;8.90;;;5.50;;
77602;SDS011;66771;52.434;17.056;2023-04-12T00:07:54;10.80;;;5.90;;
77602;SDS011;66771;52.434;17.056;2023-04-12T00:10:21;10.10;;;5.90;;
77602;SDS011;66771;52.434;17.056;2023-04-12T00:12:47;9.10;;;5.70;;
77602;SDS011;66771;52.434;17.056;2023-04-12T00:15:14;8.70;;;5.70;;
77602;SDS011;66771;52.434;17.056;2023-04-12T00:17:41;8.80;;;5.80;;
77602;SDS011;66771;52.434;17.056;2023-04-12T00:20:09;7.30;;;5.20;;
77602;SDS011;66771;52.434;17.056;2023-04-12T00:22:40;6.90;;;5.10;;
77602;SDS011;66771;52.434;17.056;2023-04-12T00:25:08;7.50;;;5.00;;
77602;SDS011;66771;52.434;17.056;2023-04-12T00:27:35;8.50;;;5.40;;
77602;SDS011;66771;52.434;17.056;2023-04-12T00:30:02;7.50;;;5.00;;
77602;SDS011;66771;52.434;17.056;2023-04-12T00:32:29;7.40;;;5.10;;
77602;SDS011;66771;52.434;17.056;2023-04-12T00:34:56;14.10;;;5.60;;
77602;SDS011;66771;52.434;17.056;2023-04-12T00:37:23;7.70;;;5.00;;
77602;SDS011;66771;52.434;17.056;2023-04-12T00:39:50;16.30;;;6.50;;
77602;SDS011;66771;52.434;17.056;2023-04-12T00:42:16;7.20;;;5.10;;
77602;SDS011;66771;52.434;17.056;2023-04-12T00:44:43;7.70;;;5.60;;
77602;SDS011;66771;52.434;17.056;2023-04-12T00:47:10;7.30;;;5.70;;
77602;SDS011;66771;52.434;17.056;2023-04-12T00:49:37;8.30;;;5.50;;
77602;SDS011;66771;52.434;17.056;2023-04-12T00:52:04;8.50;;;5.40;;
77602;SDS011;66771;52.434;17.056;2023-04-12T00:54:33;9.20;;;6.10;;
77602;SDS011;66771;52.434;17.056;2023-04-12T00:57:01;10.60;;;5.90;;
77602;SDS011;66771;52.434;17.056;2023-04-12T00:59:28;9.60;;;5.70;;
77602;SDS011;66771;52.434;17.056;2023-04-12T01:01:55;7.10;;;5.60;;
77602;SDS011;66771;52.434;17.056;2023-04-12T01:04:23;9.80;;;6.20;;
77602;SDS011;66771;52.434;17.056;2023-04-12T01:12:51;8.90;;;7.00;;
77602;SDS011;66771;52.434;17.056;2023-04-12T01:15:21;8.80;;;7.10;;
77602;SDS011;66771;52.434;17.056;2023-04-12T01:17:56;10.20;;;7.40;;
77602;SDS011;66771;52.434;17.056;2023-04-12T01:20:32;9.90;;;7.70;;
77602;SDS011;66771;52.434;17.056;2023-04-12T01:26:08;10.30;;;6.80;;
77602;SDS011;66771;52.434;17.056;2023-04-12T01:28:42;9.10;;;6.50;;
77602;SDS011;66771;52.434;17.056;2023-04-12T01:31:11;10.50;;;6.50;;
77602;SDS011;66771;52.434;17.056;2023-04-12T01:33:39;13.20;;;7.90;;
77602;SDS011;66771;52.434;17.056;2023-04-12T01:36:11;14.00;;;8.20;;
77602;SDS011;66771;52.434;17.056;2023-04-12T01:38:41;10.00;;;7.10;;
77602;SDS011;66771;52.434;17.056;2023-04-12T01:41:11;9.30;;;7.20;;
77602;SDS011;66771;52.434;17.056;2023-04-12T01:43:40;11.30;;;6.90;;
77602;SDS011;66771;52.434;17.056;2023-04-12T01:46:11;10.40;;;6.40;;
77602;SDS011;66771;52.434;17.056;2023-04-12T01:48:40;11.90;;;6.40;;
77602;SDS011;66771;52.434;17.056;2023-04-12T01:51:17;8.80;;;7.00;;
77602;SDS011;66771;52.434;17.056;2023-04-12T01:56:27;9.90;;;6.60;;
77602;SDS011;66771;52.434;17.056;2023-04-12T01:58:59;13.90;;;7.50;;
77602;SDS011;66771;52.434;17.056;2023-04-12T02:01:27;13.50;;;7.10;;
77602;SDS011;66771;52.434;17.056;2023-04-12T02:03:59;10.80;;;6.40;;
77602;SDS011;66771;52.434;17.056;2023-04-12T02:06:29;13.50;;;7.00;;
77602;SDS011;66771;52.434;17.056;2023-04-12T02:09:00;11.40;;;7.40;;
77602;SDS011;66771;52.434;17.056;2023-04-12T02:11:30;9.60;;;7.20;;
77602;SDS011;66771;52.434;17.056;2023-04-12T02:13:57;11.60;;;7.30;;
77602;SDS011;66771;52.434;17.056;2023-04-12T02:16:27;11.20;;;7.50;;
77602;SDS011;66771;52.434;17.056;2023-04-12T02:18:57;13.60;;;7.50;;
77602;SDS011;66771;52.434;17.056;2023-04-12T02:21:24;12.50;;;7.50;;
77602;SDS011;66771;52.434;17.056;2023-04-12T02:23:53;10.10;;;6.60;;
77602;SDS011;66771;52.434;17.056;2023-04-12T02:26:25;9.50;;;6.80;;
77602;SDS011;66771;52.434;17.056;2023-04-12T02:28:52;11.00;;;6.90;;
77602;SDS011;66771;52.434;17.056;2023-04-12T02:31:19;10.40;;;7.40;;
77602;SDS011;66771;52.434;17.056;2023-04-12T02:33:49;10.20;;;8.00;;
77602;SDS011;66771;52.434;17.056;2023-04-12T02:36:16;9.20;;;7.50;;
77602;SDS011;66771;52.434;17.056;2023-04-12T02:38:44;9.80;;;7.80;;
77602;SDS011;66771;52.434;17.056;2023-04-12T02:41:15;10.60;;;8.10;;
77602;SDS011;66771;52.434;17.056;2023-04-12T02:43:47;8.90;;;7.80;;
77602;SDS011;66771;52.434;17.056;2023-04-12T02:46:15;10.00;;;8.50;;
77602;SDS011;66771;52.434;17.056;2023-04-12T02:48:48;12.40;;;8.60;;
77602;SDS011;66771;52.434;17.056;2023-04-12T02:51:16;11.20;;;8.90;;
77602;SDS011;66771;52.434;17.056;2023-04-12T02:56:23;11.90;;;8.60;;
77602;SDS011;66771;52.434;17.056;2023-04-12T02:59:10;13.60;;;8.70;;
77602;SDS011;66771;52.434;17.056;2023-04-12T03:02:00;12.20;;;8.10;;
77602;SDS011;66771;52.434;17.056;2023-04-12T03:04:29;12.50;;;8.50;;
77602;SDS011;66771;52.434;17.056;2023-04-12T03:07:02;11.40;;;8.00;;
77602;SDS011;66771;52.434;17.056;2023-04-12T03:09:34;10.70;;;7.30;;
77602;SDS011;66771;52.434;17.056;2023-04-12T03:12:09;11.10;;;8.20;;
77602;SDS011;66771;52.434;17.056;2023-04-12T03:14:41;12.10;;;8.30;;
77602;SDS011;66771;52.434;17.056;2023-04-12T03:17:08;10.70;;;8.30;;
77602;SDS011;66771;52.434;17.056;2023-04-12T03:19:36;10.50;;;7.50;;
77602;SDS011;66771;52.434;17.056;2023-04-12T03:22:04;10.30;;;7.10;;
77602;SDS011;66771;52.434;17.056;2023-04-12T03:24:33;12.40;;;8.50;;
77602;SDS011;66771;52.434;17.056;2023-04-12T03:27:04;10.80;;;8.40;;
77602;SDS011;66771;52.434;17.056;2023-04-12T03:29:36;8.60;;;7.60;;
77602;SDS011;66771;52.434;17.056;2023-04-12T03:32:04;11.00;;;7.80;;
77602;SDS011;66771;52.434;17.056;2023-04-12T03:34:37;11.40;;;8.20;;
77602;SDS011;66771;52.434;17.056;2023-04-12T03:37:10;10.90;;;8.40;;
77602;SDS011;66771;52.434;17.056;2023-04-12T03:39:40;12.40;;;8.40;;
77602;SDS011;66771;52.434;17.056;2023-04-12T03:42:11;11.80;;;8.40;;
77602;SDS011;66771;52.434;17.056;2023-04-12T03:44:39;11.00;;;8.90;;
77602;SDS011;66771;52.434;17.056;2023-04-12T03:47:09;14.70;;;9.00;;
77602;SDS011;66771;52.434;17.056;2023-04-12T03:49:37;11.10;;;7.90;;
77602;SDS011;66771;52.434;17.056;2023-04-12T03:52:07;10.80;;;8.00;;
77602;SDS011;66771;52.434;17.056;2023-04-12T03:54:35;16.10;;;8.80;;
77602;SDS011;66771;52.434;17.056;2023-04-12T03:57:06;13.00;;;8.60;;
77602;SDS011;66771;52.434;17.056;2023-04-12T03:59:38;12.50;;;9.00;;
77602;SDS011;66771;52.434;17.056;2023-04-12T04:02:05;11.30;;;8.30;;
77602;SDS011;66771;52.434;17.056;2023-04-12T04:04:33;12.70;;;8.10;;
77602;SDS011;66771;52.434;17.056;2023-04-12T04:07:07;9.80;;;8.00;;
77602;SDS011;66771;52.434;17.056;2023-04-12T04:09:40;14.00;;;9.60;;
77602;SDS011;66771;52.434;17.056;2023-04-12T04:12:07;14.80;;;9.40;;
77602;SDS011;66771;52.434;17.056;2023-04-12T04:14:34;13.30;;;9.10;;
77602;SDS011;66771;52.434;17.056;2023-04-12T04:17:03;12.80;;;9.30;;
77602;SDS011;66771;52.434;17.056;2023-04-12T04:19:30;12.80;;;9.80;;
77602;SDS011;66771;52.434;17.056;2023-04-12T04:21:57;12.20;;;8.60;;
77602;SDS011;66771;52.434;17.056;2023-04-12T04:24:25;13.40;;;8.90;;
77602;SDS011;66771;52.434;17.056;2023-04-12T04:26:54;10.20;;;8.00;;
77602;SDS011;66771;52.434;17.056;2023-04-12T04:29:26;12.50;;;9.60;;
77602;SDS011;66771;52.434;17.056;2023-04-12T04:31:54;11.50;;;10.00;;
77602;SDS011;66771;52.434;17.056;2023-04-12T04:34:23;12.40;;;9.00;;
77602;SDS011;66771;52.434;17.056;2023-04-12T04:36:52;15.70;;;10.40;;
77602;SDS011;66771;52.434;17.056;2023-04-12T04:39:24;16.90;;;11.20;;
77602;SDS011;66771;52.434;17.056;2023-04-12T04:41:53;14.50;;;10.30;;
77602;SDS011;66771;52.434;17.056;2023-04-12T04:44:27;15.50;;;11.10;;
77602;SDS011;66771;52.434;17.056;2023-04-12T04:46:57;15.80;;;11.60;;
77602;SDS011;66771;52.434;17.056;2023-04-12T04:49:26;13.40;;;9.90;;
77602;SDS011;66771;52.434;17.056;2023-04-12T04:51:54;15.20;;;11.20;;
77602;SDS011;66771;52.434;17.056;2023-04-12T04:54:21;12.50;;;9.70;;
77602;SDS011;66771;52.434;17.056;2023-04-12T04:56:47;15.40;;;10.00;;
77602;SDS011;66771;52.434;17.056;2023-04-12T04:59:16;16.50;;;9.60;;
77602;SDS011;66771;52.434;17.056;2023-04-12T05:01:43;17.70;;;10.80;;
77602;SDS011;66771;52.434;17.056;2023-04-12T05:04:10;14.30;;;10.50;;
77602;SDS011;66771;52.434;17.056;2023-04-12T05:06:37;18.50;;;9.90;;
77602;SDS011;66771;52.434;17.056;2023-04-12T05:09:04;13.00;;;9.20;;
77602;SDS011;66771;52.434;17.056;2023-04-12T05:11:33;15.60;;;10.20;;
77602;SDS011;66771;52.434;17.056;2023-04-12T05:14:00;12.20;;;9.20;;
77602;SDS011;66771;52.434;17.056;2023-04-12T05:16:27;12.90;;;10.30;;
77602;SDS011;66771;52.434;17.056;2023-04-12T05:18:53;14.40;;;9.40;;
77602;SDS011;66771;52.434;17.056;2023-04-12T05:21:21;13.80;;;9.70;;
77602;SDS011;66771;52.434;17.056;2023-04-12T05:23:47;15.60;;;10.50;;
77602;SDS011;66771;52.434;17.056;2023-04-12T05:26:14;15.30;;;10.20;;
77602;SDS011;66771;52.434;17.056;2023-04-12T05:28:44;15.90;;;10.10;;
77602;SDS011;66771;52.434;17.056;2023-04-12T05:31:11;14.70;;;9.40;;
77602;SDS011;66771;52.434;17.056;2023-04-12T05:33:38;15.00;;;9.80;;
77602;SDS011;66771;52.434;17.056;2023-04-12T05:36:06;12.80;;;9.20;;
77602;SDS011;66771;52.434;17.056;2023-04-12T05:38:33;14.60;;;8.40;;
77602;SDS011;66771;52.434;17.056;2023-04-12T05:41:03;13.90;;;8.50;;
77602;SDS011;66771;52.434;17.056;2023-04-12T05:43:31;13.50;;;9.40;;
77602;SDS011;66771;52.434;17.056;2023-04-12T05:45:59;14.70;;;10.40;;
77602;SDS011;66771;52.434;17.056;2023-04-12T05:48:26;13.70;;;10.00;;
77602;SDS011;66771;52.434;17.056;2023-04-12T05:50:54;17.40;;;9.20;;
77602;SDS011;66771;52.434;17.056;2023-04-12T05:53:22;14.10;;;8.80;;
77602;SDS011;66771;52.434;17.056;2023-04-12T05:55:49;16.40;;;8.90;;
77602;SDS011;66771;52.434;17.056;2023-04-12T05:58:17;13.40;;;8.30;;
77602;SDS011;66771;52.434;17.056;2023-04-12T06:00:44;12.30;;;8.10;;
77602;SDS011;66771;52.434;17.056;2023-04-12T06:03:11;15.00;;;9.00;;
77602;SDS011;66771;52.434;17.056;2023-04-12T06:05:38;12.70;;;9.20;;
77602;SDS011;66771;52.434;17.056;2023-04-12T06:08:05;13.80;;;10.00;;
77602;SDS011;66771;52.434;17.056;2023-04-12T06:10:33;13.70;;;9.90;;
77602;SDS011;66771;52.434;17.056;2023-04-12T06:13:00;15.20;;;10.20;;
77602;SDS011;66771;52.434;17.056;2023-04-12T06:15:27;12.60;;;9.10;;
77602;SDS011;66771;52.434;17.056;2023-04-12T06:17:58;13.60;;;9.70;;
77602;SDS011;66771;52.434;17.056;2023-04-12T06:20:25;11.60;;;8.70;;
77602;SDS011;66771;52.434;17.056;2023-04-12T06:22:53;13.10;;;9.10;;
77602;SDS011;66771;52.434;17.056;2023-04-12T06:25:20;11.30;;;9.40;;
77602;SDS011;66771;52.434;17.056;2023-04-12T06:27:48;10.10;;;8.40;;
77602;SDS011;66771;52.434;17.056;2023-04-12T06:30:17;14.10;;;9.60;;
77602;SDS011;66771;52.434;17.056;2023-04-12T06:32:45;11.20;;;9.50;;
77602;SDS011;66771;52.434;17.056;2023-04-12T06:35:14;11.20;;;9.50;;
77602;SDS011;66771;52.434;17.056;2023-04-12T06:37:42;12.20;;;8.80;;
77602;SDS011;66771;52.434;17.056;2023-04-12T06:40:10;10.10;;;8.80;;
77602;SDS011;66771;52.434;17.056;2023-04-12T06:42:39;9.90;;;8.70;;
77602;SDS011;66771;52.434;17.056;2023-04-12T06:45:06;12.80;;;9.50;;
77602;SDS011;66771;52.434;17.056;2023-04-12T06:47:33;10.70;;;9.50;;
77602;SDS011;66771;52.434;17.056;2023-04-12T06:50:21;11.30;;;8.40;;
77602;SDS011;66771;52.434;17.056;2023-04-12T06:52:48;11.10;;;8.60;;
77602;SDS011;66771;52.434;17.056;2023-04-12T06:55:15;12.40;;;8.90;;
77602;SDS011;66771;52.434;17.056;2023-04-12T06:57:43;15.00;;;9.30;;
77602;SDS011;66771;52.434;17.056;2023-04-12T07:00:23;10.80;;;9.00;;
77602;SDS011;66771;52.434;17.056;2023-04-12T07:02:51;11.00;;;8.60;;
77602;SDS011;66771;52.434;17.056;2023-04-12T07:05:18;13.00;;;9.00;;
77602;SDS011;66771;52.434;17.056;2023-04-12T07:07:46;10.70;;;9.00;;
77602;SDS011;66771;52.434;17.056;2023-04-12T07:10:13;10.20;;;9.00;;
77602;SDS011;66771;52.434;17.056;2023-04-12T07:12:41;11.20;;;9.60;;
77602;SDS011;66771;52.434;17.056;2023-04-12T07:15:08;9.30;;;8.00;;
77602;SDS011;66771;52.434;17.056;2023-04-12T07:17:43;10.30;;;8.10;;
77602;SDS011;66771;52.434;17.056;2023-04-12T07:20:10;10.50;;;8.40;;
77602;SDS011;66771;52.434;17.056;2023-04-12T07:22:40;11.60;;;8.90;;
77602;SDS011;66771;52.434;17.056;2023-04-12T07:25:07;9.50;;;8.50;;
77602;SDS011;66771;52.434;17.056;2023-04-12T07:27:36;11.10;;;9.00;;
77602;SDS011;66771;52.434;17.056;2023-04-12T07:30:04;11.50;;;8.50;;
77602;SDS011;66771;52.434;17.056;2023-04-12T07:32:33;15.80;;;9.90;;
77602;SDS011;66771;52.434;17.056;2023-04-12T07:35:00;13.70;;;9.50;;
77602;SDS011;66771;52.434;17.056;2023-04-12T07:37:27;12.20;;;10.60;;
77602;SDS011;66771;52.434;17.056;2023-04-12T07:39:54;15.60;;;10.80;;
77602;SDS011;66771;52.434;17.056;2023-04-12T07:42:20;11.30;;;9.60;;
77602;SDS011;66771;52.434;17.056;2023-04-12T07:44:47;10.30;;;8.80;;
77602;SDS011;66771;52.434;17.056;2023-04-12T07:47:25;11.60;;;10.00;;
77602;SDS011;66771;52.434;17.056;2023-04-12T07:49:53;12.60;;;10.10;;
77602;SDS011;66771;52.434;17.056;2023-04-12T07:52:20;11.00;;;9.40;;
77602;SDS011;66771;52.434;17.056;2023-04-12T07:54:47;11.40;;;9.80;;
77602;SDS011;66771;52.434;17.056;2023-04-12T07:57:16;10.40;;;9.30;;
77602;SDS011;66771;52.434;17.056;2023-04-12T07:59:43;9.10;;;8.10;;
77602;SDS011;66771;52.434;17.056;2023-04-12T08:02:11;9.40;;;8.50;;
77602;SDS011;66771;52.434;17.056;2023-04-12T08:04:38;11.80;;;10.30;;
77602;SDS011;66771;52.434;17.056;2023-04-12T08:07:09;10.90;;;8.80;;
77602;SDS011;66771;52.434;17.056;2023-04-12T08:09:38;11.20;;;9.10;;
77602;SDS011;66771;52.434;17.056;2023-04-12T08:12:06;11.70;;;9.40;;
77602;SDS011;66771;52.434;17.056;2023-04-12T08:14:33;12.40;;;9.10;;
77602;SDS011;66771;52.434;17.056;2023-04-12T08:17:00;10.30;;;8.80;;
77602;SDS011;66771;52.434;17.056;2023-04-12T08:19:27;8.80;;;7.90;;
77602;SDS011;66771;52.434;17.056;2023-04-12T08:21:54;9.30;;;8.10;;
77602;SDS011;66771;52.434;17.056;2023-04-12T08:24:21;12.00;;;8.70;;
77602;SDS011;66771;52.434;17.056;2023-04-12T08:26:51;12.10;;;7.90;;
77602;SDS011;66771;52.434;17.056;2023-04-12T08:29:18;11.90;;;9.60;;
77602;SDS011;66771;52.434;17.056;2023-04-12T08:31:45;12.70;;;10.30;;
77602;SDS011;66771;52.434;17.056;2023-04-12T08:34:12;14.80;;;11.20;;
77602;SDS011;66771;52.434;17.056;2023-04-12T08:36:39;15.90;;;10.40;;
77602;SDS011;66771;52.434;17.056;2023-04-12T08:39:08;11.30;;;9.00;;
77602;SDS011;66771;52.434;17.056;2023-04-12T08:41:39;10.90;;;7.40;;
77602;SDS011;66771;52.434;17.056;2023-04-12T08:44:10;8.20;;;6.60;;
77602;SDS011;66771;52.434;17.056;2023-04-12T08:49:30;9.40;;;7.00;;
77602;SDS011;66771;52.434;17.056;2023-04-12T08:51:59;9.80;;;8.60;;
77602;SDS011;66771;52.434;17.056;2023-04-12T08:54:31;9.90;;;8.80;;
77602;SDS011;66771;52.434;17.056;2023-04-12T08:57:00;12.90;;;10.00;;
77602;SDS011;66771;52.434;17.056;2023-04-12T08:59:37;13.80;;;11.00;;
77602;SDS011;66771;52.434;17.056;2023-04-12T09:02:07;16.10;;;12.50;;
77602;SDS011;66771;52.434;17.056;2023-04-12T09:04:45;16.50;;;10.80;;
77602;SDS011;66771;52.434;17.056;2023-04-12T09:07:15;12.50;;;10.50;;
77602;SDS011;66771;52.434;17.056;2023-04-12T09:09:46;15.00;;;10.10;;
77602;SDS011;66771;52.434;17.056;2023-04-12T09:12:13;12.40;;;9.40;;
77602;SDS011;66771;52.434;17.056;2023-04-12T09:14:41;12.50;;;9.70;;
77602;SDS011;66771;52.434;17.056;2023-04-12T09:17:20;10.40;;;8.00;;
77602;SDS011;66771;52.434;17.056;2023-04-12T09:19:51;13.40;;;9.70;;
77602;SDS011;66771;52.434;17.056;2023-04-12T09:22:33;11.40;;;8.50;;
77602;SDS011;66771;52.434;17.056;2023-04-12T09:25:01;10.30;;;7.80;;
77602;SDS011;66771;52.434;17.056;2023-04-12T09:27:51;10.50;;;7.10;;
77602;SDS011;66771;52.434;17.056;2023-04-12T09:30:19;11.50;;;7.80;;
77602;SDS011;66771;52.434;17.056;2023-04-12T09:32:46;12.60;;;8.70;;
77602;SDS011;66771;52.434;17.056;2023-04-12T09:35:14;10.00;;;7.40;;
77602;SDS011;66771;52.434;17.056;2023-04-12T09:37:42;9.40;;;7.70;;
77602;SDS011;66771;52.434;17.056;2023-04-12T09:40:09;10.40;;;7.70;;
77602;SDS011;66771;52.434;17.056;2023-04-12T09:42:50;10.70;;;9.10;;
77602;SDS011;66771;52.434;17.056;2023-04-12T09:45:22;11.20;;;8.30;;
77602;SDS011;66771;52.434;17.056;2023-04-12T09:47:50;10.80;;;7.30;;
77602;SDS011;66771;52.434;17.056;2023-04-12T09:50:28;9.00;;;7.70;;
77602;SDS011;66771;52.434;17.056;2023-04-12T09:52:56;8.10;;;7.00;;
77602;SDS011;66771;52.434;17.056;2023-04-12T09:55:26;7.80;;;7.00;;
77602;SDS011;66771;52.434;17.056;2023-04-12T09:57:55;9.20;;;7.30;;
77602;SDS011;66771;52.434;17.056;2023-04-12T10:00:22;7.70;;;6.70;;
77602;SDS011;66771;52.434;17.056;2023-04-12T10:02:52;8.20;;;6.90;;
77602;SDS011;66771;52.434;17.056;2023-04-12T10:05:21;8.80;;;7.70;;
77602;SDS011;66771;52.434;17.056;2023-04-12T10:07:51;8.20;;;6.70;;
77602;SDS011;66771;52.434;17.056;2023-04-12T10:10:21;7.00;;;6.30;;
77602;SDS011;66771;52.434;17.056;2023-04-12T10:12:48;12.40;;;7.00;;
77602;SDS011;66771;52.434;17.056;2023-04-12T10:15:15;7.20;;;6.50;;
77602;SDS011;66771;52.434;17.056;2023-04-12T10:17:52;9.10;;;6.70;;
77602;SDS011;66771;52.434;17.056;2023-04-12T10:20:20;9.70;;;6.30;;
77602;SDS011;66771;52.434;17.056;2023-04-12T10:22:48;11.40;;;8.70;;
77602;SDS011;66771;52.434;17.056;2023-04-12T10:25:17;8.30;;;7.00;;
77602;SDS011;66771;52.434;17.056;2023-04-12T10:27:48;7.60;;;5.70;;
77602;SDS011;66771;52.434;17.056;2023-04-12T10:35:55;6.10;;;5.00;;
77602;SDS011;66771;52.434;17.056;2023-04-12T10:38:29;6.20;;;4.90;;
77602;SDS011;66771;52.434;17.056;2023-04-12T10:43:46;5.80;;;5.00;;
77602;SDS011;66771;52.434;17.056;2023-04-12T10:49:07;7.20;;;6.20;;
77602;SDS011;66771;52.434;17.056;2023-04-12T10:51:37;6.90;;;6.00;;
77602;SDS011;66771;52.434;17.056;2023-04-12T10:56:43;8.60;;;7.20;;
77602;SDS011;66771;52.434;17.056;2023-04-12T10:59:50;8.20;;;6.20;;
77602;SDS011;66771;52.434;17.056;2023-04-12T11:02:24;5.80;;;5.10;;
77602;SDS011;66771;52.434;17.056;2023-04-12T11:05:06;6.10;;;5.40;;
77602;SDS011;66771;52.434;17.056;2023-04-12T11:07:53;6.20;;;5.20;;
77602;SDS011;66771;52.434;17.056;2023-04-12T11:10:40;7.00;;;5.00;;
77602;SDS011;66771;52.434;17.056;2023-04-12T11:13:15;6.90;;;5.00;;
77602;SDS011;66771;52.434;17.056;2023-04-12T11:15:42;5.00;;;4.30;;
77602;SDS011;66771;52.434;17.056;2023-04-12T11:18:12;5.50;;;4.80;;
77602;SDS011;66771;52.434;17.056;2023-04-12T11:20:39;6.40;;;4.70;;
77602;SDS011;66771;52.434;17.056;2023-04-12T11:23:06;5.10;;;4.60;;
77602;SDS011;66771;52.434;17.056;2023-04-12T11:25:33;5.80;;;4.70;;
77602;SDS011;66771;52.434;17.056;2023-04-12T11:28:01;5.60;;;4.70;;
77602;SDS011;66771;52.434;17.056;2023-04-12T11:30:30;6.60;;;5.20;;
77602;SDS011;66771;52.434;17.056;2023-04-12T11:32:57;6.20;;;4.80;;
77602;SDS011;66771;52.434;17.056;2023-04-12T11:35:24;10.70;;;6.20;;
77602;SDS011;66771;52.434;17.056;2023-04-12T11:37:56;6.60;;;5.00;;
77602;SDS011;66771;52.434;17.056;2023-04-12T11:40:24;6.10;;;5.10;;
77602;SDS011;66771;52.434;17.056;2023-04-12T11:42:51;6.30;;;5.20;;
77602;SDS011;66771;52.434;17.056;2023-04-12T11:45:22;6.30;;;5.10;;
77602;SDS011;66771;52.434;17.056;2023-04-12T11:47:50;5.80;;;4.70;;
77602;SDS011;66771;52.434;17.056;2023-04-12T11:50:28;6.40;;;5.40;;
77602;SDS011;66771;52.434;17.056;2023-04-12T11:53:07;7.00;;;5.40;;
77602;SDS011;66771;52.434;17.056;2023-04-12T11:55:37;8.30;;;6.50;;
77602;SDS011;66771;52.434;17.056;2023-04-12T11:58:05;6.60;;;5.50;;
77602;SDS011;66771;52.434;17.056;2023-04-12T12:00:33;9.00;;;6.00;;
77602;SDS011;66771;52.434;17.056;2023-04-12T12:03:00;5.90;;;5.30;;
77602;SDS011;66771;52.434;17.056;2023-04-12T12:05:27;6.90;;;5.10;;
77602;SDS011;66771;52.434;17.056;2023-04-12T12:07:56;6.20;;;5.10;;
77602;SDS011;66771;52.434;17.056;2023-04-12T12:10:23;8.00;;;5.50;;
77602;SDS011;66771;52.434;17.056;2023-04-12T12:12:49;7.50;;;5.10;;
77602;SDS011;66771;52.434;17.056;2023-04-12T12:15:16;6.00;;;4.70;;
77602;SDS011;66771;52.434;17.056;2023-04-12T12:17:44;6.40;;;4.80;;
77602;SDS011;66771;52.434;17.056;2023-04-12T12:20:18;6.50;;;5.50;;
77602;SDS011;66771;52.434;17.056;2023-04-12T12:22:47;5.90;;;5.10;;
77602;SDS011;66771;52.434;17.056;2023-04-12T12:25:16;4.90;;;4.10;;
77602;SDS011;66771;52.434;17.056;2023-04-12T12:27:44;4.50;;;4.10;;
77602;SDS011;66771;52.434;17.056;2023-04-12T12:30:16;4.80;;;4.40;;
77602;SDS011;66771;52.434;17.056;2023-04-12T12:32:44;6.10;;;4.90;;
77602;SDS011;66771;52.434;17.056;2023-04-12T12:35:12;4.70;;;3.70;;
77602;SDS011;66771;52.434;17.056;2023-04-12T12:37:52;4.60;;;4.00;;
77602;SDS011;66771;52.434;17.056;2023-04-12T12:40:28;6.60;;;4.90;;
77602;SDS011;66771;52.434;17.056;2023-04-12T12:42:57;7.20;;;5.10;;
77602;SDS011;66771;52.434;17.056;2023-04-12T12:45:25;5.00;;;4.20;;
77602;SDS011;66771;52.434;17.056;2023-04-12T12:50:25;6.30;;;5.20;;
77602;SDS011;66771;52.434;17.056;2023-04-12T12:52:53;5.50;;;4.30;;
77602;SDS011;66771;52.434;17.056;2023-04-12T12:55:21;6.20;;;4.90;;
77602;SDS011;66771;52.434;17.056;2023-04-12T12:57:53;8.00;;;4.80;;
77602;SDS011;66771;52.434;17.056;2023-04-12T13:00:22;5.30;;;4.30;;
77602;SDS011;66771;52.434;17.056;2023-04-12T13:02:50;3.30;;;3.00;;
77602;SDS011;66771;52.434;17.056;2023-04-12T13:05:18;4.60;;;3.70;;
77602;SDS011;66771;52.434;17.056;2023-04-12T13:07:46;6.60;;;4.40;;
77602;SDS011;66771;52.434;17.056;2023-04-12T13:10:13;5.40;;;4.20;;
77602;SDS011;66771;52.434;17.056;2023-04-12T13:12:40;5.10;;;4.40;;
77602;SDS011;66771;52.434;17.056;2023-04-12T13:15:07;4.60;;;3.80;;
77602;SDS011;66771;52.434;17.056;2023-04-12T13:17:34;5.30;;;4.60;;
77602;SDS011;66771;52.434;17.056;2023-04-12T13:20:01;5.50;;;4.80;;
77602;SDS011;66771;52.434;17.056;2023-04-12T13:22:29;5.20;;;4.70;;
77602;SDS011;66771;52.434;17.056;2023-04-12T13:24:55;5.60;;;4.70;;
77602;SDS011;66771;52.434;17.056;2023-04-12T13:27:22;4.60;;;4.10;;
77602;SDS011;66771;52.434;17.056;2023-04-12T13:29:49;4.60;;;4.00;;
77602;SDS011;66771;52.434;17.056;2023-04-12T13:32:16;5.00;;;3.80;;
77602;SDS011;66771;52.434;17.056;2023-04-12T13:34:43;3.90;;;3.40;;
77602;SDS011;66771;52.434;17.056;2023-04-12T13:37:10;4.00;;;3.70;;
77602;SDS011;66771;52.434;17.056;2023-04-12T13:39:38;5.90;;;3.40;;
77602;SDS011;66771;52.434;17.056;2023-04-12T13:42:06;3.60;;;3.30;;
77602;SDS011;66771;52.434;17.056;2023-04-12T13:44:33;6.20;;;3.50;;
77602;SDS011;66771;52.434;17.056;2023-04-12T13:47:01;4.00;;;3.20;;
77602;SDS011;66771;52.434;17.056;2023-04-12T13:49:29;6.60;;;3.50;;
77602;SDS011;66771;52.434;17.056;2023-04-12T13:51:56;4.60;;;3.70;;
77602;SDS011;66771;52.434;17.056;2023-04-12T13:54:22;4.10;;;3.40;;
77602;SDS011;66771;52.434;17.056;2023-04-12T13:56:49;4.00;;;3.10;;
77602;SDS011;66771;52.434;17.056;2023-04-12T13:59:17;4.40;;;3.50;;
77602;SDS011;66771;52.434;17.056;2023-04-12T14:01:44;6.40;;;3.70;;
77602;SDS011;66771;52.434;17.056;2023-04-12T14:04:10;3.90;;;3.60;;
77602;SDS011;66771;52.434;17.056;2023-04-12T14:06:37;5.20;;;3.40;;
77602;SDS011;66771;52.434;17.056;2023-04-12T14:09:04;5.90;;;3.10;;
77602;SDS011;66771;52.434;17.056;2023-04-12T14:11:43;3.40;;;2.80;;
77602;SDS011;66771;52.434;17.056;2023-04-12T14:14:12;3.20;;;2.90;;
77602;SDS011;66771;52.434;17.056;2023-04-12T14:16:39;4.00;;;2.70;;
77602;SDS011;66771;52.434;17.056;2023-04-12T14:19:06;4.50;;;2.90;;
77602;SDS011;66771;52.434;17.056;2023-04-12T14:21:32;3.10;;;2.60;;
77602;SDS011;66771;52.434;17.056;2023-04-12T14:23:59;2.90;;;2.50;;
77602;SDS011;66771;52.434;17.056;2023-04-12T14:26:26;2.40;;;2.20;;
77602;SDS011;66771;52.434;17.056;2023-04-12T14:28:53;1.90;;;1.80;;
77602;SDS011;66771;52.434;17.056;2023-04-12T14:31:20;3.00;;;1.70;;
77602;SDS011;66771;52.434;17.056;2023-04-12T14:33:47;2.10;;;1.90;;
77602;SDS011;66771;52.434;17.056;2023-04-12T14:36:14;3.90;;;1.90;;
77602;SDS011;66771;52.434;17.056;2023-04-12T14:38:40;4.30;;;2.00;;
77602;SDS011;66771;52.434;17.056;2023-04-12T14:41:07;3.20;;;1.70;;
77602;SDS011;66771;52.434;17.056;2023-04-12T14:43:35;4.70;;;2.20;;
77602;SDS011;66771;52.434;17.056;2023-04-12T14:46:01;3.60;;;2.60;;
77602;SDS011;66771;52.434;17.056;2023-04-12T14:48:28;2.70;;;2.40;;
77602;SDS011;66771;52.434;17.056;2023-04-12T14:50:55;2.50;;;2.30;;
77602;SDS011;66771;52.434;17.056;2023-04-12T14:53:22;3.40;;;2.30;;
77602;SDS011;66771;52.434;17.056;2023-04-12T14:55:49;2.20;;;2.00;;
77602;SDS011;66771;52.434;17.056;2023-04-12T14:58:16;2.20;;;2.00;;
77602;SDS011;66771;52.434;17.056;2023-04-12T15:00:43;3.20;;;2.10;;
77602;SDS011;66771;52.434;17.056;2023-04-12T15:03:09;2.40;;;2.20;;
77602;SDS011;66771;52.434;17.056;2023-04-12T15:05:36;2.30;;;2.10;;
77602;SDS011;66771;52.434;17.056;2023-04-12T15:08:03;4.10;;;2.20;;
77602;SDS011;66771;52.434;17.056;2023-04-12T15:10:30;3.90;;;2.90;;